createdAt,value
2023-03-29T00:00:02.162Z,11.10
2023-03-29T00:02:39.118Z,11.57
2023-03-29T00:05:06.812Z,12.33
2023-03-29T00:07:33.810Z,11.67
2023-03-29T00:10:04.798Z,11.63
2023-03-29T00:12:32.468Z,12.17
2023-03-29T00:14:59.713Z,12.67
2023-03-29T00:17:26.822Z,12.23
2023-03-29T00:19:53.978Z,12.57
2023-03-29T00:22:21.481Z,12.10
2023-03-29T00:24:49.285Z,13.00
2023-03-29T00:27:17.116Z,12.77
2023-03-29T00:29:44.233Z,13.10
2023-03-29T00:32:11.315Z,12.70
2023-03-29T00:34:38.405Z,13.80
2023-03-29T00:37:08.868Z,12.93
2023-03-29T00:39:37.160Z,13.43
2023-03-29T00:42:04.561Z,13.90
2023-03-29T00:45:06.180Z,14.60
2023-03-29T00:47:57.448Z,13.90
2023-03-29T00:50:34.661Z,14.20
2023-03-29T00:53:26.580Z,14.63
2023-03-29T00:56:02.507Z,14.87
2023-03-29T00:58:46.834Z,14.83
2023-03-29T01:01:19.750Z,14.73
2023-03-29T01:03:54.577Z,14.67
2023-03-29T01:06:25.058Z,15.37
2023-03-29T01:09:01.430Z,13.80
2023-03-29T01:11:55.724Z,15.43
2023-03-29T01:14:49.908Z,14.80
2023-03-29T01:17:21.871Z,15.67
2023-03-29T01:19:58.355Z,15.20
2023-03-29T01:22:28.392Z,15.20
2023-03-29T01:25:11.424Z,15.03
2023-03-29T01:27:56.036Z,15.27
2023-03-29T01:31:03.834Z,15.70
2023-03-29T01:33:42.870Z,15.87
2023-03-29T01:36:27.227Z,15.23
2023-03-29T01:39:03.457Z,16.10
2023-03-29T01:42:08.215Z,15.50
2023-03-29T01:44:45.546Z,15.13
2023-03-29T01:47:30.342Z,15.03
2023-03-29T01:50:09.339Z,15.43
2023-03-29T01:52:42.385Z,14.40
2023-03-29T01:55:14.880Z,14.40
2023-03-29T01:57:44.951Z,13.77
2023-03-29T02:00:18.009Z,14.23
2023-03-29T02:02:47.025Z,15.20
2023-03-29T02:05:16.483Z,15.00
2023-03-29T02:07:46.275Z,14.60
2023-03-29T02:10:14.721Z,15.57
2023-03-29T02:12:42.484Z,15.20
2023-03-29T02:15:19.303Z,16.03
2023-03-29T02:17:47.953Z,15.80
2023-03-29T02:20:19.089Z,16.13
2023-03-29T02:23:14.676Z,16.43
2023-03-29T02:25:43.596Z,16.00
2023-03-29T02:28:12.084Z,16.50
2023-03-29T02:31:23.621Z,17.67
2023-03-29T02:34:33.003Z,17.00
2023-03-29T02:37:06.967Z,18.17
2023-03-29T02:39:36.037Z,17.70
2023-03-29T02:42:06.291Z,17.57
2023-03-29T02:44:38.092Z,18.50
2023-03-29T02:47:16.715Z,19.60
2023-03-29T02:49:44.432Z,19.43
2023-03-29T02:52:16.150Z,19.40
2023-03-29T02:54:45.938Z,19.70
2023-03-29T02:57:13.484Z,19.33
2023-03-29T02:59:44.052Z,19.50
2023-03-29T03:02:11.995Z,19.47
2023-03-29T03:04:39.667Z,19.30
2023-03-29T03:07:06.920Z,19.83
2023-03-29T03:09:34.375Z,19.50
2023-03-29T03:12:01.944Z,19.57
2023-03-29T03:14:29.560Z,18.73
2023-03-29T03:17:00.644Z,19.87
2023-03-29T03:19:29.932Z,19.53
2023-03-29T03:21:57.228Z,19.07
2023-03-29T03:24:24.412Z,19.00
2023-03-29T03:26:51.986Z,18.83
2023-03-29T03:29:19.711Z,18.83
2023-03-29T03:32:05.864Z,18.70
2023-03-29T03:34:51.748Z,18.60
2023-03-29T03:37:22.624Z,19.70
2023-03-29T03:39:49.897Z,19.67
2023-03-29T03:42:17.809Z,19.00
2023-03-29T03:44:46.430Z,19.03
2023-03-29T03:47:37.848Z,17.80
2023-03-29T03:50:19.598Z,18.83
2023-03-29T03:52:47.070Z,18.37
2023-03-29T03:55:14.843Z,17.50
2023-03-29T03:58:00.667Z,17.37
2023-03-29T04:00:27.763Z,19.00
2023-03-29T04:03:11.154Z,18.63
2023-03-29T04:05:40.680Z,19.10
2023-03-29T04:08:09.115Z,19.00
2023-03-29T04:10:56.963Z,18.47
2023-03-29T04:13:29.569Z,19.17
2023-03-29T04:16:13.594Z,19.37
2023-03-29T04:18:41.084Z,19.30
2023-03-29T04:21:08.436Z,21.53
2023-03-29T04:23:36.683Z,22.50
2023-03-29T04:26:04.187Z,22.73
2023-03-29T04:28:57.587Z,22.70
2023-03-29T04:31:50.771Z,22.47
2023-03-29T04:34:44.246Z,20.00
2023-03-29T04:37:11.874Z,19.90
2023-03-29T04:39:40.186Z,18.57
2023-03-29T04:42:09.017Z,19.50
2023-03-29T04:44:37.087Z,19.27
2023-03-29T04:47:08.169Z,19.03
2023-03-29T04:49:50.981Z,19.00
2023-03-29T04:52:33.301Z,18.67
2023-03-29T04:55:03.492Z,19.60
2023-03-29T04:58:02.923Z,18.67
2023-03-29T05:00:41.187Z,17.53
2023-03-29T05:03:40.568Z,17.63
2023-03-29T05:06:17.947Z,18.83
2023-03-29T05:08:45.357Z,18.73
2023-03-29T05:11:42.172Z,18.27
2023-03-29T05:14:09.606Z,18.47
2023-03-29T05:16:38.210Z,18.87
2023-03-29T05:19:06.125Z,18.00
2023-03-29T05:21:37.684Z,17.13
2023-03-29T05:24:09.126Z,16.87
2023-03-29T05:26:54.541Z,16.87
2023-03-29T05:29:21.791Z,15.77
2023-03-29T05:31:54.791Z,16.20
2023-03-29T05:34:22.908Z,16.63
2023-03-29T05:36:57.121Z,16.30
2023-03-29T05:39:26.142Z,16.50
2023-03-29T05:41:55.075Z,16.40
2023-03-29T05:44:32.238Z,14.70
2023-03-29T05:47:09.303Z,14.80
2023-03-29T05:49:38.192Z,14.83
2023-03-29T05:52:14.714Z,13.93
2023-03-29T05:54:42.495Z,13.47
2023-03-29T05:57:12.063Z,12.30
2023-03-29T05:59:40.369Z,12.40
2023-03-29T06:02:07.754Z,11.73
2023-03-29T06:04:40.077Z,11.47
2023-03-29T06:07:27.453Z,11.50
2023-03-29T06:10:15.744Z,10.87
2023-03-29T06:12:47.825Z,11.33
2023-03-29T06:15:16.192Z,9.87
2023-03-29T06:18:02.445Z,10.27
2023-03-29T06:20:30.251Z,10.00
2023-03-29T06:23:03.396Z,9.80
2023-03-29T06:25:30.431Z,10.60
2023-03-29T06:27:58.301Z,10.03
2023-03-29T06:30:26.003Z,10.10
2023-03-29T06:32:57.920Z,10.13
2023-03-29T06:35:51.445Z,10.17
2023-03-29T06:38:26.916Z,11.33
2023-03-29T06:41:12.838Z,10.03
2023-03-29T06:44:12.260Z,9.90
2023-03-29T06:47:00.056Z,10.70
2023-03-29T06:49:28.442Z,9.80
2023-03-29T06:52:30.557Z,9.17
2023-03-29T06:54:58.112Z,8.63
2023-03-29T06:57:26.285Z,10.43
2023-03-29T06:59:54.078Z,9.47
2023-03-29T07:02:34.707Z,10.10
2023-03-29T07:05:13.675Z,9.13
2023-03-29T07:08:11.989Z,9.05
2023-03-29T07:11:00.239Z,8.32
2023-03-29T07:13:56.431Z,9.00
2023-03-29T07:16:24.267Z,9.02
2023-03-29T07:19:05.939Z,8.68
2023-03-29T07:21:53.517Z,8.18
2023-03-29T07:24:23.926Z,7.95
2023-03-29T07:27:03.418Z,7.32
2023-03-29T07:29:33.022Z,7.55
2023-03-29T07:32:00.329Z,7.13
2023-03-29T07:34:53.635Z,7.63
2023-03-29T07:37:30.694Z,7.50
2023-03-29T07:40:00.327Z,7.45
2023-03-29T07:42:39.302Z,7.50
2023-03-29T07:45:10.197Z,7.28
2023-03-29T07:47:53.666Z,7.35
2023-03-29T07:50:20.864Z,7.35
2023-03-29T07:52:48.398Z,8.35
2023-03-29T07:55:16.544Z,8.70
2023-03-29T07:58:03.707Z,7.90
2023-03-29T08:00:33.183Z,9.20
2023-03-29T08:03:27.861Z,8.48
2023-03-29T08:05:55.045Z,7.97
2023-03-29T08:08:22.212Z,7.72
2023-03-29T08:10:57.156Z,8.65
2023-03-29T08:13:42.580Z,8.05
2023-03-29T08:16:33.688Z,7.53
2023-03-29T08:19:14.726Z,8.40
2023-03-29T08:22:00.878Z,7.82
2023-03-29T08:24:35.470Z,7.50
2023-03-29T08:27:06.441Z,6.85
2023-03-29T08:29:34.100Z,6.05
2023-03-29T08:32:01.323Z,5.60
2023-03-29T08:34:29.047Z,5.80
2023-03-29T08:37:24.682Z,4.80
2023-03-29T08:39:54.187Z,5.05
2023-03-29T08:42:43.123Z,4.72
2023-03-29T08:45:15.940Z,4.60
2023-03-29T08:48:02.682Z,4.55
2023-03-29T08:50:36.866Z,5.05
2023-03-29T08:53:19.200Z,5.18
2023-03-29T08:56:07.682Z,5.35
2023-03-29T08:58:57.825Z,5.30
2023-03-29T09:01:32.795Z,4.70
2023-03-29T09:04:20.282Z,5.32
2023-03-29T09:07:10.896Z,5.63
2023-03-29T09:09:46.147Z,3.63
2023-03-29T09:12:57.699Z,3.90
2023-03-29T09:15:31.124Z,4.40
2023-03-29T09:18:36.086Z,3.50
2023-03-29T09:21:16.590Z,3.33
2023-03-29T09:23:58.282Z,3.15
2023-03-29T09:26:52.865Z,3.60
2023-03-29T09:29:52.589Z,3.40
2023-03-29T09:32:31.901Z,3.15
2023-03-29T09:35:22.359Z,3.13
2023-03-29T09:37:53.229Z,3.38
2023-03-29T09:40:32.186Z,3.47
2023-03-29T09:43:12.646Z,3.60
2023-03-29T09:45:42.309Z,3.50
2023-03-29T09:48:19.373Z,3.58
2023-03-29T09:50:52.920Z,3.63
2023-03-29T09:53:21.689Z,2.75
2023-03-29T09:56:12.425Z,3.42
2023-03-29T09:58:48.414Z,3.05
2023-03-29T10:01:18.970Z,3.25
2023-03-29T10:03:52.522Z,3.33
2023-03-29T10:06:23.770Z,3.47
2023-03-29T10:08:59.151Z,3.28
2023-03-29T10:11:37.061Z,2.92
2023-03-29T10:14:41.050Z,3.03
2023-03-29T10:17:22.823Z,3.20
2023-03-29T10:19:52.207Z,3.88
2023-03-29T10:22:25.060Z,2.83
2023-03-29T10:24:54.466Z,3.58
2023-03-29T10:27:26.199Z,3.35
2023-03-29T10:29:55.416Z,3.20
2023-03-29T10:32:23.076Z,3.03
2023-03-29T10:34:52.184Z,3.25
2023-03-29T10:37:21.350Z,3.63
2023-03-29T10:39:49.155Z,2.90
2023-03-29T10:42:19.461Z,2.75
2023-03-29T10:44:58.092Z,3.00
2023-03-29T10:47:26.031Z,2.60
2023-03-29T10:49:57.097Z,2.75
2023-03-29T10:52:25.215Z,2.75
2023-03-29T10:54:54.555Z,2.20
2023-03-29T10:57:29.589Z,2.60
2023-03-29T11:00:08.799Z,2.38
2023-03-29T11:03:15.791Z,2.58
2023-03-29T11:06:07.087Z,3.17
2023-03-29T11:08:43.143Z,2.70
2023-03-29T11:12:08.262Z,3.25
2023-03-29T11:14:51.314Z,3.40
2023-03-29T11:17:27.623Z,3.17
2023-03-29T11:20:33.330Z,2.90
2023-03-29T11:23:06.846Z,3.13
2023-03-29T11:25:47.427Z,2.55
2023-03-29T11:28:31.602Z,3.00
2023-03-29T11:31:40.894Z,3.05
2023-03-29T11:34:17.696Z,2.97
2023-03-29T11:37:05.349Z,3.40
2023-03-29T11:39:59.625Z,2.80
2023-03-29T11:42:35.026Z,3.03
2023-03-29T11:45:05.172Z,2.80
2023-03-29T11:47:37.380Z,2.65
2023-03-29T11:50:21.200Z,2.45
2023-03-29T11:53:00.566Z,3.00
2023-03-29T11:55:31.068Z,2.53
2023-03-29T11:58:17.492Z,2.47
2023-03-29T12:00:55.780Z,2.60
2023-03-29T12:03:25.884Z,2.75
2023-03-29T12:06:18.425Z,2.63
2023-03-29T12:08:52.966Z,2.50
2023-03-29T12:11:30.428Z,2.72
2023-03-29T12:14:16.593Z,2.65
2023-03-29T12:16:52.075Z,3.20
2023-03-29T12:19:25.915Z,3.20
2023-03-29T12:21:56.119Z,3.25
2023-03-29T12:24:26.961Z,3.22
2023-03-29T12:27:03.024Z,3.65
2023-03-29T12:30:14.095Z,3.67
2023-03-29T12:33:07.849Z,3.65
2023-03-29T12:36:26.503Z,3.65
2023-03-29T12:39:16.623Z,3.03
2023-03-29T12:42:15.568Z,3.00
2023-03-29T12:45:02.030Z,3.45
2023-03-29T12:47:43.282Z,3.65
2023-03-29T12:50:31.563Z,3.45
2023-03-29T12:53:13.607Z,3.33
2023-03-29T12:55:43.808Z,3.53
2023-03-29T12:58:38.588Z,3.88
2023-03-29T13:01:08.704Z,3.28
2023-03-29T13:03:47.643Z,2.85
2023-03-29T13:06:46.820Z,2.90
2023-03-29T13:09:50.460Z,2.80
2023-03-29T13:12:28.550Z,2.88
2023-03-29T13:15:06.202Z,2.90
2023-03-29T13:17:48.703Z,2.83
2023-03-29T13:20:37.503Z,2.50
2023-03-29T13:23:22.499Z,2.70
2023-03-29T13:26:08.527Z,3.22
2023-03-29T13:29:03.604Z,3.38
2023-03-29T13:31:42.240Z,2.60
2023-03-29T13:34:31.037Z,2.97
2023-03-29T13:37:22.203Z,2.78
2023-03-29T13:39:53.067Z,2.80
2023-03-29T13:42:24.470Z,2.90
2023-03-29T13:44:52.200Z,2.85
2023-03-29T13:47:19.279Z,3.30
2023-03-29T13:49:54.257Z,3.20
2023-03-29T13:52:39.574Z,3.20
2023-03-29T13:55:27.166Z,3.33
2023-03-29T13:58:27.537Z,3.00
2023-03-29T14:01:17.966Z,3.13
2023-03-29T14:03:48.744Z,3.08
2023-03-29T14:06:22.243Z,3.50
2023-03-29T14:08:51.525Z,3.28
2023-03-29T14:11:24.987Z,3.13
2023-03-29T14:13:54.628Z,3.28
2023-03-29T14:16:22.202Z,3.90
2023-03-29T14:18:51.483Z,3.42
2023-03-29T14:21:21.128Z,3.35
2023-03-29T14:23:55.830Z,3.28
2023-03-29T14:26:30.510Z,3.00
2023-03-29T14:29:01.373Z,4.05
2023-03-29T14:31:46.781Z,3.10
2023-03-29T14:34:16.709Z,3.55
2023-03-29T14:36:49.379Z,3.92
2023-03-29T14:39:20.073Z,4.18
2023-03-29T14:41:53.040Z,4.03
2023-03-29T14:44:27.170Z,3.78
2023-03-29T14:46:55.659Z,4.00
2023-03-29T14:49:23.648Z,3.95
2023-03-29T14:51:52.319Z,3.63
2023-03-29T14:54:32.740Z,3.55
2023-03-29T14:57:03.726Z,4.00
2023-03-29T14:59:38.057Z,3.70
2023-03-29T15:02:21.905Z,4.15
2023-03-29T15:04:59.140Z,3.67
2023-03-29T15:07:28.429Z,3.80
2023-03-29T15:09:57.869Z,3.40
2023-03-29T15:12:25.443Z,3.83
2023-03-29T15:14:53.157Z,4.20
2023-03-29T15:17:50.521Z,4.00
2023-03-29T15:20:26.606Z,3.92
2023-03-29T15:23:18.431Z,4.05
2023-03-29T15:25:52.400Z,4.00
2023-03-29T15:28:28.864Z,4.25
2023-03-29T15:31:07.337Z,3.88
2023-03-29T15:33:37.920Z,3.53
2023-03-29T15:36:07.198Z,4.15
2023-03-29T15:38:43.297Z,3.88
2023-03-29T15:41:12.419Z,4.00
2023-03-29T15:43:39.728Z,3.70
2023-03-29T15:46:06.931Z,4.22
2023-03-29T15:48:34.353Z,4.45
2023-03-29T15:51:06.089Z,4.15
2023-03-29T15:53:33.830Z,4.60
2023-03-29T15:56:02.874Z,3.97
2023-03-29T15:58:32.576Z,3.85
2023-03-29T16:01:23.817Z,3.50
2023-03-29T16:03:51.608Z,3.78
2023-03-29T16:06:18.723Z,4.13
2023-03-29T16:08:46.190Z,3.72
2023-03-29T16:11:13.274Z,3.40
2023-03-29T16:13:40.615Z,3.60
2023-03-29T16:16:12.394Z,4.13
2023-03-29T16:18:39.707Z,3.78
2023-03-29T16:21:11.777Z,4.00
2023-03-29T16:23:39.458Z,3.90
2023-03-29T16:26:06.875Z,3.92
2023-03-29T16:28:34.064Z,4.38
2023-03-29T16:31:01.327Z,4.75
2023-03-29T16:33:28.475Z,4.43
2023-03-29T16:35:56.191Z,4.47
2023-03-29T16:38:24.561Z,4.38
2023-03-29T16:40:52.624Z,4.57
2023-03-29T16:43:20.005Z,4.30
2023-03-29T16:45:47.177Z,4.60
2023-03-29T16:48:17.461Z,4.97
2023-03-29T16:50:51.566Z,4.35
2023-03-29T16:53:19.808Z,4.88
2023-03-29T16:55:47.899Z,4.68
2023-03-29T16:58:15.573Z,5.32
2023-03-29T17:00:45.005Z,5.25
2023-03-29T17:03:13.731Z,5.25
2023-03-29T17:05:46.246Z,5.35
2023-03-29T17:08:13.327Z,5.60
2023-03-29T17:10:41.589Z,4.85
2023-03-29T17:13:09.745Z,5.30
2023-03-29T17:15:39.597Z,4.93
2023-03-29T17:18:07.582Z,5.43
2023-03-29T17:20:34.828Z,5.30
2023-03-29T17:23:01.854Z,5.13
2023-03-29T17:25:28.882Z,5.18
2023-03-29T17:27:56.116Z,5.20
2023-03-29T17:30:23.327Z,5.28
2023-03-29T17:32:52.328Z,5.80
2023-03-29T17:35:19.783Z,6.53
2023-03-29T17:37:47.004Z,6.00
2023-03-29T17:40:14.289Z,6.57
2023-03-29T17:42:42.315Z,7.18
2023-03-29T17:45:10.927Z,7.85
2023-03-29T17:47:38.860Z,7.47
2023-03-29T17:50:07.911Z,7.82
2023-03-29T17:52:35.378Z,7.85
2023-03-29T17:55:02.706Z,7.50
2023-03-29T17:57:29.729Z,8.05
2023-03-29T17:59:56.875Z,7.53
2023-03-29T18:02:24.932Z,7.25
2023-03-29T18:04:52.191Z,8.55
2023-03-29T18:07:19.171Z,8.98
2023-03-29T18:09:46.236Z,10.07
2023-03-29T18:12:13.343Z,10.27
2023-03-29T18:14:40.530Z,11.00
2023-03-29T18:17:07.740Z,11.30
2023-03-29T18:19:35.186Z,12.50
2023-03-29T18:22:02.258Z,11.60
2023-03-29T18:24:29.674Z,12.57
2023-03-29T18:26:56.663Z,12.93
2023-03-29T18:29:24.137Z,12.80
2023-03-29T18:31:51.343Z,13.80
2023-03-29T18:34:18.536Z,13.10
2023-03-29T18:36:45.786Z,13.67
2023-03-29T18:39:13.862Z,13.07
2023-03-29T18:41:40.917Z,13.60
2023-03-29T18:44:08.129Z,13.73
2023-03-29T18:46:35.336Z,12.60
2023-03-29T18:49:03.133Z,12.57
2023-03-29T18:51:31.085Z,13.00
2023-03-29T18:53:58.591Z,12.77
2023-03-29T18:56:25.808Z,12.97
2023-03-29T18:58:53.727Z,13.83
2023-03-29T19:01:21.266Z,14.33
2023-03-29T19:03:48.616Z,13.70
2023-03-29T19:06:16.038Z,14.23
2023-03-29T19:08:43.408Z,14.73
2023-03-29T19:11:14.305Z,14.17
2023-03-29T19:13:42.563Z,14.43
2023-03-29T19:16:09.940Z,14.03
2023-03-29T19:18:37.383Z,12.57
2023-03-29T19:21:04.467Z,12.10
2023-03-29T19:23:32.277Z,12.50
2023-03-29T19:26:02.797Z,12.00
2023-03-29T19:28:31.196Z,11.73
2023-03-29T19:31:00.762Z,14.10
2023-03-29T19:33:29.343Z,14.90
2023-03-29T19:35:56.501Z,13.20
2023-03-29T19:38:23.619Z,13.60
2023-03-29T19:40:55.349Z,13.30
2023-03-29T19:43:22.438Z,12.50
2023-03-29T19:45:51.388Z,12.80
2023-03-29T19:48:23.869Z,13.63
2023-03-29T19:50:52.097Z,13.70
2023-03-29T19:53:19.445Z,11.97
2023-03-29T19:55:46.451Z,17.00
2023-03-29T19:58:13.461Z,15.40
2023-03-29T20:00:41.933Z,11.47
2023-03-29T20:03:10.188Z,11.20
2023-03-29T20:05:38.887Z,10.83
2023-03-29T20:08:07.326Z,11.37
2023-03-29T20:10:35.387Z,9.60
2023-03-29T20:13:03.719Z,9.87
2023-03-29T20:15:32.604Z,10.07
2023-03-29T20:18:00.733Z,10.40
2023-03-29T20:20:28.548Z,10.50
2023-03-29T20:23:04.505Z,10.30
2023-03-29T20:25:34.599Z,10.00
2023-03-29T20:28:01.597Z,10.10
2023-03-29T20:30:28.900Z,10.17
2023-03-29T20:32:56.242Z,9.80
2023-03-29T20:35:23.412Z,9.87
2023-03-29T20:37:50.532Z,10.03
2023-03-29T20:40:17.710Z,9.97
2023-03-29T20:42:46.367Z,9.37
2023-03-29T20:45:18.746Z,9.40
2023-03-29T20:47:50.623Z,8.60
2023-03-29T20:50:19.296Z,8.87
2023-03-29T20:52:46.852Z,9.17
2023-03-29T20:55:16.896Z,8.00
2023-03-29T20:57:44.104Z,8.77
2023-03-29T21:00:12.190Z,8.20
2023-03-29T21:02:39.659Z,8.20
2023-03-29T21:05:08.829Z,8.60
2023-03-29T21:07:39.064Z,8.60
2023-03-29T21:10:07.456Z,8.67
2023-03-29T21:12:35.100Z,8.37
2023-03-29T21:15:02.428Z,9.50
2023-03-29T21:17:29.853Z,7.90
2023-03-29T21:19:57.036Z,8.63
2023-03-29T21:22:24.916Z,8.47
2023-03-29T21:24:52.046Z,9.17
2023-03-29T21:27:19.172Z,8.70
2023-03-29T21:29:46.261Z,8.87
2023-03-29T21:32:13.460Z,8.93
2023-03-29T21:34:40.763Z,8.90
2023-03-29T21:37:08.142Z,8.50
2023-03-29T21:39:35.528Z,8.97
2023-03-29T21:42:02.712Z,8.43
2023-03-29T21:44:30.653Z,9.13
2023-03-29T21:46:59.289Z,8.90
2023-03-29T21:49:26.390Z,9.43
2023-03-29T21:51:55.282Z,9.13
2023-03-29T21:54:22.496Z,9.37
2023-03-29T21:56:49.563Z,8.30
2023-03-29T21:59:17.006Z,8.30
2023-03-29T22:01:44.283Z,8.80
2023-03-29T22:04:19.872Z,9.00
2023-03-29T22:06:52.800Z,8.23
2023-03-29T22:09:20.559Z,7.93
2023-03-29T22:11:48.638Z,8.70
2023-03-29T22:14:15.727Z,8.53
2023-03-29T22:16:42.950Z,8.60
2023-03-29T22:19:10.736Z,9.73
2023-03-29T22:21:37.825Z,9.20
2023-03-29T22:24:05.096Z,9.23
2023-03-29T22:26:33.177Z,9.60
2023-03-29T22:29:01.308Z,10.13
2023-03-29T22:31:29.831Z,10.80
2023-03-29T22:33:58.750Z,10.60
2023-03-29T22:36:28.330Z,10.80
2023-03-29T22:38:56.089Z,10.27
2023-03-29T22:41:24.976Z,10.30
2023-03-29T22:43:53.066Z,10.90
2023-03-29T22:46:20.724Z,11.20
2023-03-29T22:48:48.071Z,11.63
2023-03-29T22:51:16.254Z,10.37
2023-03-29T22:53:43.474Z,10.80
2023-03-29T22:56:10.727Z,10.70
2023-03-29T22:58:38.096Z,10.87
2023-03-29T23:01:06.719Z,11.10
2023-03-29T23:03:34.101Z,10.30
2023-03-29T23:06:04.824Z,10.37
2023-03-29T23:08:33.777Z,11.27
2023-03-29T23:11:02.128Z,10.70
2023-03-29T23:13:30.346Z,10.53
2023-03-29T23:15:59.361Z,10.53
2023-03-29T23:18:28.609Z,9.80
2023-03-29T23:20:57.490Z,10.60
2023-03-29T23:23:25.925Z,11.37
2023-03-29T23:25:53.970Z,11.17
2023-03-29T23:28:24.590Z,14.07
2023-03-29T23:31:05.443Z,10.37
2023-03-29T23:33:35.509Z,10.37
2023-03-29T23:36:06.239Z,10.13
2023-03-29T23:38:34.580Z,10.10
2023-03-29T23:41:04.734Z,11.33
2023-03-29T23:43:35.210Z,10.40
2023-03-29T23:46:08.177Z,10.93
2023-03-29T23:48:35.272Z,11.97
2023-03-29T23:51:03.187Z,11.07
2023-03-29T23:53:31.481Z,10.43
2023-03-29T23:56:03.370Z,9.60
2023-03-29T23:58:32.900Z,12.20
